Pagrindinis puslapis
METAR-TAF:

METAR-TAF

Oro uostai :

Islamabadas, Pakistanas

platuma: 33-32-57N, ilguma: 072-49-32E, Aukštis: 537 m

Dabartinis oras

Ataskaita buvo paskelbta 31 minutes, ne 04:55 UTC
Vėjas 7 kt iš Rytų
Temperatūra 30°C
Drėgmė 66%
Slėgis 1012 hPa
Matomumas: 4000 m
migla

METAR: OPIS 180455Z 09007KT 4000 HZ NSC 30/23 Q1012

Laikas: 10:26 (05:26 UTC)

Prognozė

Ataskaita buvo paskelbta 14 valandos ir 26 minutes, ne 15:00 UTC
Prognozė galioja nuo 17 metu 18 UTC su 18 metu 24 UTC
Vėjas 10 kt iš Pietų/Pietryčių
Matomumas: 6000 m
Mažai debesys ne aukštis 4000 ft
Išsisklaidę debesys ne aukštis 10000 ft
Laikinai
nuo 17 metu 22 UTC su 18 metu 04 UTC
Vėjas 8 kt iš Rytų
Matomumas: 3000 m
migla

TAF: OPIS 171500Z 1718/1824 15010KT 6000 FEW040 SCT100 TEMPO 1722/1804 09008KT 3000 HZ NSC

Orai ataskaitas ir orų prognozės (METAR, TAF).

turimą stotys yra geltonos ir raudonos taškus žemėlapyje.

Perkelti pele per norėdami pamatyti stoties vardą.

Tada spustelėkite, norėdami matyti oro stebėjimo ir prognozės.

Norėdami pakeisti žemėlapį: spustelėkite ant žalios mygtukų su juodo kryžiaus žemyn,; žalią mygtuką su brūkšneliu, jei norite nutolinti; arba žalių rodyklių gretimoms žemėlapius.


METAR-TAF: